Time;durP1;ratioP1;P1;durP2;ratioP2;P2;SDS_P1;SDS_P2;PMS_P1;PMS_P2;Temp;Humidity;BMP_temperature;BMP_pressure;BME280_temperature;BME280_humidity;BME280_pressure;Samples;Min_cycle;Max_cycle;Signal;HPM_P1;HPM_P2
2021/07/04 00:01:08;;;;;;;;;9.50;8.00;;;;;22.78;58.31;100828.19;5059618;28;45614;-51
2021/07/04 00:03:34;;;;;;;;;10.00;7.75;;;;;22.77;58.39;100818.56;5059061;28;45420;-51
2021/07/04 00:05:59;;;;;;;;;12.00;8.00;;;;;22.72;58.31;100812.78;5038534;28;46054;-49
2021/07/04 00:08:25;;;;;;;;;10.25;9.75;;;;;22.67;59.08;100816.75;5059336;28;45269;-52
2021/07/04 00:10:59;;;;;;;;;11.50;9.50;;;;;22.58;58.89;100814.78;5048965;28;45269;-51
2021/07/04 00:13:25;;;;;;;;;10.25;9.25;;;;;22.51;59.08;100819.72;5059527;28;45511;-51
2021/07/04 00:15:50;;;;;;;;;9.00;8.75;;;;;22.48;59.12;100816.47;5059255;28;47437;-51
2021/07/04 00:18:20;;;;;;;;;10.50;10.25;;;;;22.44;59.22;100815.88;5037684;28;45383;-49
2021/07/04 00:20:46;;;;;;;;;11.75;11.25;;;;;22.42;59.28;100813.28;5057948;28;45328;-52
2021/07/04 00:23:11;;;;;;;;;11.25;11.25;;;;;22.44;59.88;100811.41;5059338;28;45354;-50
2021/07/04 00:25:37;;;;;;;;;16.25;15.00;;;;;22.52;58.97;100808.16;5058897;28;46205;-50
2021/07/04 00:28:03;;;;;;;;;18.50;12.00;;;;;22.49;59.07;100812.84;5059314;28;45487;-49
2021/07/04 00:30:28;;;;;;;;;13.00;11.25;;;;;22.42;59.35;100807.16;5059179;28;45433;-51
2021/07/04 00:32:54;;;;;;;;;11.25;10.75;;;;;22.41;59.36;100798.38;5058910;28;49927;-52
2021/07/04 00:35:20;;;;;;;;;17.50;14.75;;;;;22.39;59.46;100797.66;5058917;28;46115;-51
2021/07/04 00:37:46;;;;;;;;;13.25;10.75;;;;;22.39;59.50;100792.34;5058947;28;45351;-51
2021/07/04 00:40:11;;;;;;;;;14.00;10.25;;;;;22.34;59.38;100788.38;5050853;28;45536;-49
2021/07/04 00:42:37;;;;;;;;;13.75;12.00;;;;;22.29;59.72;100788.72;5057901;28;45357;-52
2021/07/04 00:45:06;;;;;;;;;10.00;10.00;;;;;22.24;59.80;100792.69;5056124;28;46586;-51
2021/07/04 00:47:31;;;;;;;;;13.75;13.75;;;;;22.21;60.25;100787.59;5057312;28;45244;-50
2021/07/04 00:49:57;;;;;;;;;12.50;10.75;;;;;22.25;59.80;100787.28;5055696;28;57855;-51
2021/07/04 00:52:22;;;;;;;;;16.25;13.25;;;;;22.21;59.46;100779.66;5057235;28;56189;-50
2021/07/04 00:54:47;;;;;;;;;12.00;12.00;;;;;22.19;59.98;100786.88;5053991;28;67005;-49
2021/07/04 00:57:13;;;;;;;;;17.25;15.00;;;;;22.14;60.26;100782.78;5036672;28;63895;-52
2021/07/04 00:59:38;;;;;;;;;12.00;11.75;;;;;22.12;60.45;100779.41;5018035;28;45537;-52
2021/07/04 01:02:03;;;;;;;;;12.00;12.00;;;;;22.12;60.37;100776.75;5050120;28;57330;-52
2021/07/04 01:04:29;;;;;;;;;15.25;12.25;;;;;22.11;60.21;100774.22;5056241;28;62395;-50
2021/07/04 01:06:55;;;;;;;;;13.50;13.25;;;;;22.10;59.71;100772.53;5055641;28;45604;-51
2021/07/04 01:09:20;;;;;;;;;18.25;16.75;;;;;22.12;60.08;100768.81;5061114;28;45317;-51
2021/07/04 01:11:46;;;;;;;;;17.75;13.75;;;;;22.15;59.95;100771.22;5020062;28;45311;-51
2021/07/04 01:14:12;;;;;;;;;15.25;14.00;;;;;22.12;60.45;100771.47;5061870;28;46543;-51
2021/07/04 01:16:37;;;;;;;;;15.25;14.75;;;;;22.09;60.45;100779.63;5052975;28;61688;-51
2021/07/04 01:19:02;;;;;;;;;14.75;13.25;;;;;22.04;60.59;100770.34;5039375;28;62538;-52
2021/07/04 01:21:28;;;;;;;;;15.50;14.75;;;;;22.02;60.37;100766.94;5040049;28;58699;-50
2021/07/04 01:23:53;;;;;;;;;17.75;13.75;;;;;22.02;60.61;100772.22;5042552;28;57711;-51
2021/07/04 01:26:19;;;;;;;;;18.50;16.25;;;;;22.06;61.22;100756.06;5039821;28;63072;-49
2021/07/04 01:28:44;;;;;;;;;21.50;14.25;;;;;22.13;60.76;100759.06;5059780;28;45464;-49
2021/07/04 01:31:09;;;;;;;;;17.00;15.25;;;;;22.11;60.79;100759.19;5061218;28;64343;-50
2021/07/04 01:33:35;;;;;;;;;14.50;12.25;;;;;22.05;61.18;100756.16;5061139;28;45357;-48
2021/07/04 01:36:00;;;;;;;;;15.00;15.00;;;;;21.97;60.82;100755.84;5060602;28;45399;-48
2021/07/04 01:38:25;;;;;;;;;17.75;12.00;;;;;21.93;60.72;100762.34;5061065;28;45236;-50
2021/07/04 01:40:52;;;;;;;;;13.00;12.00;;;;;21.88;60.87;100757.41;5054777;28;65264;-52
2021/07/04 01:43:17;;;;;;;;;17.75;13.50;;;;;21.88;60.97;100762.69;5043659;28;45507;-50
2021/07/04 01:45:43;;;;;;;;;13.25;12.00;;;;;21.85;61.05;100763.75;5040065;28;45462;-51
2021/07/04 01:48:08;;;;;;;;;20.75;13.00;;;;;21.81;61.00;100762.28;5037720;28;45479;-50
2021/07/04 01:50:39;;;;;;;;;16.25;14.00;;;;;21.79;61.25;100763.34;5051846;28;45380;-51
2021/07/04 01:53:04;;;;;;;;;15.50;14.00;;;;;21.77;61.25;100762.63;5061123;28;46523;-51
2021/07/04 01:55:30;;;;;;;;;14.50;13.00;;;;;21.74;61.08;100757.56;5039178;28;68718;-50
2021/07/04 01:57:56;;;;;;;;;16.75;14.00;;;;;21.71;61.34;100752.50;5055268;28;45372;-50
2021/07/04 02:00:26;;;;;;;;;14.00;14.00;;;;;21.69;61.53;100752.63;5053005;28;45429;-52
2021/07/04 02:02:53;;;;;;;;;13.00;12.75;;;;;21.64;61.47;100753.91;5047007;28;45564;-48
2021/07/04 02:05:18;;;;;;;;;16.00;13.75;;;;;21.61;62.02;100764.69;5056891;28;45569;-49
2021/07/04 02:07:44;;;;;;;;;11.75;11.75;;;;;21.56;61.92;100757.94;5061067;28;45197;-48
2021/07/04 02:10:28;;;;;;;;;19.25;13.00;;;;;21.56;62.10;100755.31;5061257;28;45287;-51
2021/07/04 02:12:53;;;;;;;;;17.25;12.25;;;;;21.54;62.26;100754.56;5038904;28;46400;-49
2021/07/04 02:15:21;;;;;;;;;15.50;12.00;;;;;21.53;61.78;100746.75;5053423;28;45385;-51
2021/07/04 02:17:46;;;;;;;;;17.00;13.50;;;;;21.53;62.23;100752.91;5060688;28;45348;-51
2021/07/04 02:20:33;;;;;;;;;15.25;14.25;;;;;21.52;62.75;100750.38;5060840;28;45558;-49
2021/07/04 02:23:14;;;;;;;;;15.50;15.50;;;;;21.51;62.27;100746.03;5042553;28;47035;-49
2021/07/04 02:25:40;;;;;;;;;16.00;15.00;;;;;21.52;62.41;100745.06;5060802;28;45609;-48
2021/07/04 02:28:06;;;;;;;;;18.25;14.00;;;;;21.52;62.86;100748.56;5061135;28;45431;-51
2021/07/04 02:30:32;;;;;;;;;14.50;14.50;;;;;21.48;62.90;100746.25;5060805;28;45300;-50
2021/07/04 02:33:01;;;;;;;;;16.00;15.50;;;;;21.51;62.99;100733.66;5060630;28;46159;-51
2021/07/04 02:35:27;;;;;;;;;14.75;14.75;;;;;21.53;62.61;100737.03;5060544;28;45332;-51
2021/07/04 02:37:52;;;;;;;;;9.25;9.25;;;;;21.50;63.87;100737.25;5060907;28;45360;-50
2021/07/04 02:40:18;;;;;;;;;15.00;14.25;;;;;21.48;63.32;100731.25;5052033;28;45653;-50
2021/07/04 02:42:43;;;;;;;;;11.25;8.50;;;;;21.44;62.91;100743.00;5059611;28;45277;-49
2021/07/04 02:45:09;;;;;;;;;15.50;15.50;;;;;21.43;63.57;100748.41;5057954;28;45356;-52
2021/07/04 02:47:35;;;;;;;;;14.25;12.00;;;;;21.44;63.84;100753.56;5058953;28;45453;-52
2021/07/04 02:50:00;;;;;;;;;14.50;14.25;;;;;21.45;63.02;100749.13;5057727;28;47154;-52
2021/07/04 02:52:25;;;;;;;;;16.00;14.25;;;;;21.44;63.16;100748.28;5058305;28;66392;-50
2021/07/04 02:54:51;;;;;;;;;14.25;14.25;;;;;21.40;63.42;100752.09;5057214;28;52693;-50
2021/07/04 02:57:16;;;;;;;;;19.00;13.75;;;;;21.31;63.11;100752.75;5059417;28;45730;-51
2021/07/04 02:59:41;;;;;;;;;18.25;17.00;;;;;21.34;63.21;100746.41;5057672;28;45609;-51
2021/07/04 03:02:07;;;;;;;;;18.75;16.75;;;;;21.33;63.35;100735.00;5058053;28;67746;-51
2021/07/04 03:04:32;;;;;;;;;19.00;18.00;;;;;21.40;63.96;100740.66;5057978;28;57981;-50
2021/07/04 03:07:00;;;;;;;;;23.00;16.50;;;;;21.45;63.55;100739.41;5057134;28;45332;-50
2021/07/04 03:09:25;;;;;;;;;23.25;17.75;;;;;21.43;62.89;100730.75;5053861;28;45351;-51
2021/07/04 03:11:51;;;;;;;;;19.75;15.00;;;;;21.37;62.86;100738.25;5056966;28;64929;-50
2021/07/04 03:14:16;;;;;;;;;17.25;16.00;;;;;21.38;63.43;100732.00;5059800;28;45254;-51
2021/07/04 03:16:42;;;;;;;;;20.25;15.75;;;;;21.37;63.01;100731.16;5060031;28;53870;-51
2021/07/04 03:19:08;;;;;;;;;18.25;17.50;;;;;21.34;63.10;100731.38;5059216;28;55176;-51
2021/07/04 03:21:33;;;;;;;;;20.00;16.00;;;;;21.29;63.18;100725.59;5060108;28;45648;-49
2021/07/04 03:23:58;;;;;;;;;16.00;14.25;;;;;21.24;63.51;100722.44;5059251;28;58025;-51
2021/07/04 03:26:24;;;;;;;;;16.50;14.00;;;;;21.32;63.50;100719.25;5059492;28;58019;-51
2021/07/04 03:28:49;;;;;;;;;9.25;9.25;;;;;21.31;63.22;100718.41;5059353;28;61302;-47
2021/07/04 03:31:14;;;;;;;;;18.50;14.75;;;;;21.25;63.58;100716.22;5049631;28;67547;-50
2021/07/04 03:33:40;;;;;;;;;16.00;16.00;;;;;21.20;63.78;100700.63;5055379;28;63886;-49
2021/07/04 03:36:05;;;;;;;;;16.75;16.75;;;;;21.22;63.80;100693.47;5038568;28;50995;-50
2021/07/04 03:38:31;;;;;;;;;17.50;14.50;;;;;21.25;64.10;100695.06;5055908;28;45224;-51
2021/07/04 03:40:57;;;;;;;;;17.00;14.75;;;;;21.22;63.63;100696.09;5051466;28;46750;-50
2021/07/04 03:43:22;;;;;;;;;17.50;14.25;;;;;21.22;63.53;100700.50;5058405;28;45340;-49
2021/07/04 03:45:48;;;;;;;;;20.25;15.75;;;;;21.30;64.18;100702.66;5058830;28;61924;-50
2021/07/04 03:48:13;;;;;;;;;14.75;13.00;;;;;21.31;64.18;100705.19;5059282;28;45324;-51
2021/07/04 03:50:38;;;;;;;;;14.75;14.00;;;;;21.32;64.04;100708.66;5059215;28;57083;-48
2021/07/04 03:53:04;;;;;;;;;16.25;14.00;;;;;21.34;63.95;100706.75;5058993;28;51317;-49
2021/07/04 03:55:30;;;;;;;;;17.25;13.25;;;;;21.36;64.24;100713.59;5059071;28;58409;-50
2021/07/04 03:57:55;;;;;;;;;12.50;10.75;;;;;21.33;64.54;100711.19;5059359;28;45261;-48
2021/07/04 04:00:21;;;;;;;;;13.25;13.25;;;;;21.31;64.36;100730.78;5058711;28;69750;-48
2021/07/04 04:02:46;;;;;;;;;11.25;10.00;;;;;21.31;64.71;100725.47;5057673;28;45337;-48
2021/07/04 04:05:12;;;;;;;;;10.00;10.00;;;;;21.35;64.62;100727.78;5057045;28;45277;-51
2021/07/04 04:07:38;;;;;;;;;13.00;8.50;;;;;21.36;64.12;100726.81;5058945;28;45419;-50
2021/07/04 04:10:07;;;;;;;;;11.00;9.00;;;;;21.42;64.21;100731.66;5053099;28;46336;-51
2021/07/04 04:12:32;;;;;;;;;9.75;7.75;;;;;21.55;64.48;100723.69;5038073;28;45588;-51
2021/07/04 04:15:00;;;;;;;;;9.00;9.00;;;;;21.69;63.93;100727.97;5059760;28;45287;-51
2021/07/04 04:17:26;;;;;;;;;8.00;6.00;;;;;21.72;61.80;100728.59;5058952;28;45296;-50
2021/07/04 04:19:51;;;;;;;;;10.00;7.00;;;;;21.65;60.96;100729.16;5059202;28;46832;-51
2021/07/04 04:22:17;;;;;;;;;1.00;1.00;;;;;21.57;60.78;100721.78;5058564;28;63367;-49
2021/07/04 04:24:42;;;;;;;;;3.25;3.00;;;;;21.50;59.37;100717.91;5059360;28;45383;-49
2021/07/04 04:27:08;;;;;;;;;1.75;1.75;;;;;21.44;60.96;100721.84;5058400;28;61930;-50
2021/07/04 04:29:33;;;;;;;;;0.50;0.25;;;;;21.48;60.31;100728.59;5059156;28;45250;-51
2021/07/04 04:31:59;;;;;;;;;2.50;1.00;;;;;21.41;59.18;100726.50;5058874;28;45197;-48
2021/07/04 04:34:24;;;;;;;;;1.00;1.00;;;;;21.39;60.16;100725.75;5059251;28;45286;-51
2021/07/04 04:36:50;;;;;;;;;2.50;2.50;;;;;21.38;60.64;100724.06;5058990;28;45338;-51
2021/07/04 04:39:15;;;;;;;;;0.25;0.25;;;;;21.34;59.66;100735.84;5054371;28;46086;-49
2021/07/04 04:41:40;;;;;;;;;1.25;1.25;;;;;21.33;61.56;100734.16;5055779;28;45305;-49
2021/07/04 04:44:06;;;;;;;;;1.00;1.00;;;;;21.29;60.71;100722.13;5060844;28;49040;-51
2021/07/04 04:46:32;;;;;;;;;1.00;0.25;;;;;21.22;61.46;100705.78;5061182;28;45446;-51
2021/07/04 04:48:57;;;;;;;;;1.75;1.75;;;;;21.10;61.81;100704.06;5062212;28;47934;-50
2021/07/04 04:51:23;;;;;;;;;2.25;1.50;;;;;20.97;62.45;100709.38;5041177;28;45445;-51
2021/07/04 04:53:49;;;;;;;;;2.25;2.25;;;;;20.99;62.71;100712.75;5052875;28;45340;-49
2021/07/04 04:56:14;;;;;;;;;1.25;1.25;;;;;21.02;63.10;100712.50;5062251;28;45336;-49
2021/07/04 04:58:39;;;;;;;;;1.00;1.00;;;;;20.99;63.38;100722.47;5052742;28;59940;-49
2021/07/04 05:01:05;;;;;;;;;2.25;1.00;;;;;20.87;63.71;100721.56;5055892;28;56741;-49
2021/07/04 05:03:30;;;;;;;;;2.25;2.25;;;;;20.77;63.54;100715.22;5052517;28;45470;-62
2021/07/04 05:05:55;;;;;;;;;1.75;1.75;;;;;20.75;63.88;100720.59;5057992;28;48787;-60
2021/07/04 05:08:21;;;;;;;;;0.75;0.75;;;;;20.74;63.47;100711.00;5061934;28;53006;-60
2021/07/04 05:10:46;;;;;;;;;2.00;2.00;;;;;20.74;63.90;100721.56;5059905;28;45320;-60
2021/07/04 05:13:12;;;;;;;;;2.00;1.50;;;;;20.65;63.93;100719.56;5040818;28;50310;-60
2021/07/04 05:15:37;;;;;;;;;2.75;2.25;;;;;20.62;64.57;100719.75;5056319;28;48867;-60
2021/07/04 05:18:06;;;;;;;;;2.25;2.00;;;;;20.60;64.90;100711.09;5061948;28;46133;-60
2021/07/04 05:20:32;;;;;;;;;3.00;3.00;;;;;20.56;64.71;100718.41;5061876;28;45250;-60
2021/07/04 05:22:57;;;;;;;;;3.00;2.75;;;;;20.51;65.08;100717.88;5062045;28;45314;-60
2021/07/04 05:25:22;;;;;;;;;2.00;2.00;;;;;20.48;64.66;100723.38;5061311;28;60094;-60
2021/07/04 05:27:48;;;;;;;;;3.25;1.50;;;;;20.43;64.56;100724.66;5061910;28;45491;-60
2021/07/04 05:30:14;;;;;;;;;1.75;1.75;;;;;20.40;64.84;100719.53;5046634;28;53525;-60
2021/07/04 05:32:39;;;;;;;;;5.25;3.00;;;;;20.41;65.50;100722.09;5040245;28;45336;-60
2021/07/04 05:35:05;;;;;;;;;3.25;2.25;;;;;20.42;65.49;100712.38;5056113;28;60358;-60
2021/07/04 05:37:31;;;;;;;;;4.50;3.25;;;;;20.43;65.12;100717.59;5061727;28;46220;-60
2021/07/04 05:39:59;;;;;;;;;4.00;3.00;;;;;20.49;65.23;100722.44;5051428;28;45559;-60
2021/07/04 05:42:24;;;;;;;;;4.00;3.50;;;;;20.54;66.23;100720.31;5062138;28;45301;-60
2021/07/04 05:44:51;;;;;;;;;4.25;4.25;;;;;20.58;65.86;100716.50;5061426;28;45323;-60
2021/07/04 05:47:16;;;;;;;;;3.50;3.50;;;;;20.62;66.75;100715.34;5061232;28;45434;-60
2021/07/04 05:49:42;;;;;;;;;4.25;3.50;;;;;20.63;66.21;100708.28;5061570;28;45214;-59
2021/07/04 05:52:07;;;;;;;;;5.00;5.00;;;;;20.68;66.40;100708.78;5039834;28;55129;-59
2021/07/04 05:54:32;;;;;;;;;6.75;4.75;;;;;20.72;65.66;100701.50;5026926;28;54835;-59
2021/07/04 05:56:58;;;;;;;;;5.75;4.75;;;;;20.71;65.82;100705.94;5060907;28;62829;-59
2021/07/04 05:59:23;;;;;;;;;8.75;6.00;;;;;20.71;66.02;100700.66;5061050;28;51781;-59
2021/07/04 06:01:48;;;;;;;;;5.75;4.50;;;;;20.78;65.48;100701.06;5059632;28;58751;-58
2021/07/04 06:04:14;;;;;;;;;5.25;5.00;;;;;20.81;66.14;100700.84;5057304;28;47081;-59
2021/07/04 06:06:39;;;;;;;;;5.00;3.75;;;;;20.83;66.08;100702.44;5061416;28;46100;-59
2021/07/04 06:09:05;;;;;;;;;6.75;5.75;;;;;20.82;65.87;100705.16;5063042;28;55033;-60
2021/07/04 06:11:30;;;;;;;;;4.50;4.00;;;;;20.67;65.66;100709.75;5048655;28;53909;-59
2021/07/04 06:13:56;;;;;;;;;6.00;6.00;;;;;20.51;66.18;100712.59;5042962;28;45497;-59
2021/07/04 06:16:21;;;;;;;;;4.00;4.00;;;;;20.45;65.91;100713.03;5061220;28;45484;-58
2021/07/04 06:18:46;;;;;;;;;6.25;5.00;;;;;20.41;66.54;100703.63;5058347;28;53097;-58
2021/07/04 06:21:12;;;;;;;;;4.25;4.25;;;;;20.35;66.69;100711.94;5060665;28;55114;-58
2021/07/04 06:23:37;;;;;;;;;6.00;5.25;;;;;20.34;66.37;100708.44;5060671;28;45387;-58
2021/07/04 06:26:03;;;;;;;;;5.75;5.75;;;;;20.33;67.33;100713.84;5042843;28;47421;-58
2021/07/04 06:28:28;;;;;;;;;4.50;4.50;;;;;20.33;66.30;100717.31;5060835;28;45299;-58
2021/07/04 06:30:53;;;;;;;;;4.50;4.50;;;;;20.37;66.34;100717.94;5060678;28;51793;-58
2021/07/04 06:33:19;;;;;;;;;7.00;5.75;;;;;20.47;66.64;100726.13;5059879;28;65266;-58
2021/07/04 06:35:44;;;;;;;;;5.00;5.00;;;;;20.59;65.94;100718.19;5060642;28;46100;-58
2021/07/04 06:38:09;;;;;;;;;5.25;4.75;;;;;20.67;65.40;100727.38;5060281;28;45344;-58
2021/07/04 06:40:35;;;;;;;;;6.50;5.00;;;;;20.69;65.58;100722.84;5053491;28;57386;-58
2021/07/04 06:43:00;;;;;;;;;5.00;5.00;;;;;20.75;65.28;100722.41;5060000;28;64337;-59
2021/07/04 06:45:25;;;;;;;;;5.00;4.25;;;;;20.81;65.33;100725.44;5059603;28;71509;-59
2021/07/04 06:47:51;;;;;;;;;4.75;4.75;;;;;20.89;65.08;100723.13;5059295;28;65510;-60
2021/07/04 06:50:17;;;;;;;;;8.00;7.00;;;;;20.94;65.12;100721.00;5060750;28;45197;-60
2021/07/04 06:52:44;;;;;;;;;5.00;5.00;;;;;20.89;64.99;100714.38;5060411;28;45477;-60
2021/07/04 06:55:10;;;;;;;;;6.75;4.75;;;;;20.76;65.07;100714.38;5060346;28;45432;-60
2021/07/04 06:57:35;;;;;;;;;4.75;4.75;;;;;20.72;65.43;100722.63;5059852;28;45335;-59
2021/07/04 07:00:10;;;;;;;;;6.00;5.25;;;;;20.65;65.04;100717.78;5048467;28;45480;-59
2021/07/04 07:02:36;;;;;;;;;4.75;4.00;;;;;20.68;65.29;100715.88;5059580;28;45843;-60
2021/07/04 07:05:01;;;;;;;;;4.75;4.50;;;;;20.68;64.70;100714.06;5056921;28;45458;-59
2021/07/04 07:07:27;;;;;;;;;4.00;3.25;;;;;20.65;64.73;100720.41;5058881;28;48141;-59
2021/07/04 07:09:52;;;;;;;;;7.75;4.00;;;;;20.58;65.42;100710.38;5059633;28;65123;-58
2021/07/04 07:12:17;;;;;;;;;6.00;5.00;;;;;20.55;65.13;100705.31;5057858;28;45648;-59
2021/07/04 07:14:43;;;;;;;;;8.50;7.75;;;;;20.58;65.42;100705.09;5060108;28;46873;-58
2021/07/04 07:17:08;;;;;;;;;7.00;6.00;;;;;20.60;65.49;100706.66;5059709;28;45295;-59
2021/07/04 07:19:34;;;;;;;;;5.00;5.00;;;;;20.58;65.66;100707.72;5060410;28;45215;-58
2021/07/04 07:21:59;;;;;;;;;5.00;5.00;;;;;20.64;65.12;100709.97;5059366;28;58673;-58
2021/07/04 07:24:25;;;;;;;;;4.00;4.00;;;;;20.65;65.38;100709.00;5038532;28;45384;-59
2021/07/04 07:26:51;;;;;;;;;5.25;4.00;;;;;20.65;65.38;100711.66;5053923;28;45390;-58
2021/07/04 07:29:17;;;;;;;;;4.00;4.00;;;;;20.69;65.58;100710.47;5042191;28;45314;-59
2021/07/04 07:31:42;;;;;;;;;6.00;4.75;;;;;20.73;64.89;100711.94;5059931;28;45231;-59
2021/07/04 07:34:08;;;;;;;;;6.25;6.00;;;;;20.78;64.82;100715.09;5059089;28;63877;-59
2021/07/04 07:36:33;;;;;;;;;4.00;4.00;;;;;20.87;64.52;100714.47;5059180;28;66305;-59
2021/07/04 07:38:58;;;;;;;;;5.00;5.00;;;;;20.90;65.05;100716.06;5056767;28;62664;-59
2021/07/04 07:41:24;;;;;;;;;4.25;4.25;;;;;20.93;64.72;100732.53;5054939;28;63849;-60
2021/07/04 07:43:50;;;;;;;;;4.75;4.75;;;;;20.90;64.49;100727.47;5059179;28;59430;-58
2021/07/04 07:46:15;;;;;;;;;4.00;4.00;;;;;20.83;64.55;100733.28;5059634;28;45352;-59
2021/07/04 07:48:41;;;;;;;;;4.75;4.50;;;;;20.79;64.71;100731.78;5059870;28;45705;-59
2021/07/04 07:51:06;;;;;;;;;6.00;4.25;;;;;20.79;64.20;100735.28;5059520;28;45455;-59
2021/07/04 07:53:32;;;;;;;;;4.50;4.50;;;;;20.83;64.98;100736.78;5058962;28;66770;-59
2021/07/04 07:55:57;;;;;;;;;7.25;4.00;;;;;20.83;64.78;100735.94;5059419;28;45343;-59
2021/07/04 07:58:22;;;;;;;;;8.00;5.25;;;;;20.85;64.76;100734.88;5036418;28;45234;-58
2021/07/04 08:00:48;;;;;;;;;4.75;4.75;;;;;20.81;64.51;100736.00;5056785;28;55777;-59
2021/07/04 08:03:13;;;;;;;;;4.75;4.75;;;;;20.76;64.39;100734.66;5045085;28;67206;-58
2021/07/04 08:05:39;;;;;;;;;5.75;5.00;;;;;20.69;64.03;100733.41;5055646;28;45278;-59
2021/07/04 08:08:05;;;;;;;;;3.00;3.00;;;;;20.59;64.43;100736.66;5059559;28;45185;-59
2021/07/04 08:10:30;;;;;;;;;5.75;4.00;;;;;20.55;64.69;100731.72;5056953;28;45657;-59
2021/07/04 08:12:57;;;;;;;;;6.00;4.25;;;;;20.49;65.19;100734.78;5058493;28;46817;-59
2021/07/04 08:15:22;;;;;;;;;5.00;5.00;;;;;20.40;65.58;100736.22;5059435;28;45617;-62
2021/07/04 08:17:48;;;;;;;;;4.75;4.00;;;;;20.34;65.34;100732.22;5059532;28;45341;-58
2021/07/04 08:20:14;;;;;;;;;6.00;5.00;;;;;20.31;64.98;100732.41;5062794;28;52753;-59
2021/07/04 08:22:39;;;;;;;;;3.75;3.75;;;;;20.26;65.58;100731.06;5062772;28;46622;-63
2021/07/04 08:25:05;;;;;;;;;3.25;3.25;;;;;20.34;65.05;100732.22;5062606;28;45481;-59
2021/07/04 08:27:31;;;;;;;;;3.00;1.00;;;;;20.43;64.03;100729.94;5061576;28;45502;-60
2021/07/04 08:29:56;;;;;;;;;3.25;3.25;;;;;20.51;63.48;100714.41;5062212;28;45432;-66
2021/07/04 08:32:22;;;;;;;;;5.00;3.00;;;;;20.67;63.23;100701.81;5062545;28;45618;-69
2021/07/04 08:34:47;;;;;;;;;3.75;3.75;;;;;20.83;62.71;100702.44;5040146;28;45546;-68
2021/07/04 08:37:12;;;;;;;;;3.00;3.00;;;;;21.00;62.68;100677.44;5060434;28;59198;-60
2021/07/04 08:39:38;;;;;;;;;3.50;3.50;;;;;21.22;63.23;100679.38;5039127;28;50497;-61
2021/07/04 08:42:03;;;;;;;;;4.00;4.00;;;;;21.33;61.04;100682.13;5058321;28;58687;-59
2021/07/04 08:44:29;;;;;;;;;1.50;1.50;;;;;21.41;61.02;100681.53;5058004;28;63284;-61
2021/07/04 08:46:54;;;;;;;;;2.25;2.00;;;;;21.34;62.13;100675.88;5041749;28;45742;-60
2021/07/04 08:49:20;;;;;;;;;2.25;2.25;;;;;21.22;66.28;100674.09;5058353;28;45245;-60
2021/07/04 08:51:47;;;;;;;;;4.25;2.50;;;;;20.87;68.36;100685.41;5058847;28;64897;-60
2021/07/04 08:54:12;;;;;;;;;2.00;2.00;;;;;20.59;67.26;100696.22;5039595;28;45524;-61
2021/07/04 08:56:38;;;;;;;;;3.25;2.75;;;;;20.59;65.58;100701.50;5060375;28;45150;-60
2021/07/04 08:59:03;;;;;;;;;5.25;4.25;;;;;20.74;65.05;100703.06;5059424;28;45194;-61
2021/07/04 09:01:29;;;;;;;;;3.50;3.50;;;;;20.91;63.54;100709.81;5057404;28;45544;-62
2021/07/04 09:04:06;;;;;;;;;2.00;2.00;;;;;21.02;62.58;100695.81;5056369;28;45319;-61
2021/07/04 09:06:36;;;;;;;;;3.00;3.00;;;;;21.16;62.50;100703.59;5040816;28;45541;-63
2021/07/04 09:09:17;;;;;;;;;2.75;2.75;;;;;21.36;63.68;100702.19;5051646;28;45435;-65
2021/07/04 09:12:05;;;;;;;;;3.00;3.00;;;;;21.66;63.22;100699.09;5059800;28;46354;-65
2021/07/04 09:14:39;;;;;;;;;3.00;3.00;;;;;21.89;61.78;100700.88;5059864;28;45713;-63
2021/07/04 09:17:10;;;;;;;;;1.25;1.00;;;;;22.07;61.84;100703.97;5059948;28;45419;-63
2021/07/04 09:19:41;;;;;;;;;3.00;3.00;;;;;22.20;62.49;100704.69;5060870;28;45402;-60
2021/07/04 09:22:08;;;;;;;;;1.75;1.75;;;;;22.36;59.69;100710.50;5042868;28;47307;-62
2021/07/04 09:24:38;;;;;;;;;2.50;2.50;;;;;22.40;57.19;100696.06;5061347;28;45773;-60
2021/07/04 09:27:04;;;;;;;;;3.50;2.00;;;;;22.33;58.27;100697.50;5061057;28;45348;-65
2021/07/04 09:29:49;;;;;;;;;3.00;2.00;;;;;22.37;58.16;100691.00;5060628;28;45224;-71
2021/07/04 09:32:16;;;;;;;;;2.00;2.00;;;;;22.48;57.03;100695.47;5059366;28;45261;-68
2021/07/04 09:34:48;;;;;;;;;2.00;2.00;;;;;22.51;54.46;100689.94;5060377;28;45643;-60
2021/07/04 09:37:19;;;;;;;;;1.50;1.50;;;;;22.49;55.00;100685.72;5059965;28;45372;-65
2021/07/04 09:39:45;;;;;;;;;2.00;2.00;;;;;22.59;55.54;100684.03;5036687;28;45376;-61
2021/07/04 09:42:11;;;;;;;;;2.00;1.00;;;;;22.65;52.90;100673.81;5060688;28;64409;-69
2021/07/04 09:44:37;;;;;;;;;2.25;1.50;;;;;22.61;54.19;100672.34;5061051;28;45316;-69
2021/07/04 09:47:16;;;;;;;;;1.00;1.00;;;;;22.62;54.88;100670.53;5056004;28;45373;-64
2021/07/04 09:49:41;;;;;;;;;2.00;1.00;;;;;22.68;52.04;100678.03;5058983;28;45423;-64
2021/07/04 09:52:22;;;;;;;;;2.75;2.75;;;;;22.57;53.29;100668.25;5046390;28;45236;-60
2021/07/04 09:55:04;;;;;;;;;6.00;3.50;;;;;22.49;52.85;100667.19;5057588;28;52322;-61
2021/07/04 09:57:53;;;;;;;;;1.50;1.50;;;;;22.39;54.34;100664.41;5051254;28;45495;-60
2021/07/04 10:00:19;;;;;;;;;4.25;3.00;;;;;22.41;52.17;100670.41;5049834;28;45249;-59
2021/07/04 10:03:15;;;;;;;;;3.25;2.75;;;;;22.39;52.97;100667.91;5054011;28;45430;-67
2021/07/04 10:06:02;;;;;;;;;2.00;1.00;;;;;22.48;53.14;100654.91;5049702;28;45435;-69
2021/07/04 10:08:35;;;;;;;;;3.75;2.00;;;;;22.64;53.62;100660.69;5047940;28;45257;-71
2021/07/04 10:11:01;;;;;;;;;3.00;3.00;;;;;22.74;52.59;100656.34;5050087;28;45683;-72
2021/07/04 10:13:27;;;;;;;;;4.00;4.00;;;;;22.74;53.17;100657.19;5049166;28;46477;-71
2021/07/04 10:15:52;;;;;;;;;7.75;5.25;;;;;22.79;53.46;100656.81;5051827;28;45566;-72
2021/07/04 10:18:18;;;;;;;;;2.50;2.50;;;;;22.90;52.93;100650.69;5048535;28;45197;-63
2021/07/04 10:20:43;;;;;;;;;2.00;2.00;;;;;22.94;53.34;100662.72;5029937;28;45601;-73
2021/07/04 10:23:14;;;;;;;;;43.00;34.00;;;;;22.99;54.16;100648.13;5038396;28;58820;-63
2021/07/04 10:25:43;;;;;;;;;6.00;6.00;;;;;22.99;53.49;100653.44;5053760;28;45607;-60
2021/07/04 10:28:08;;;;;;;;;9.00;7.25;;;;;22.91;54.83;100658.50;5048286;28;45459;-62
2021/07/04 10:30:33;;;;;;;;;6.50;3.00;;;;;23.01;54.57;100662.09;5038123;28;47167;-69
2021/07/04 10:33:18;;;;;;;;;5.00;5.00;;;;;23.11;54.11;100659.56;5049204;28;46422;-66
2021/07/04 10:35:59;;;;;;;;;5.75;4.75;;;;;23.13;53.70;100652.31;5035451;28;45492;-65
2021/07/04 10:38:24;;;;;;;;;2.00;2.00;;;;;23.06;52.25;100648.50;5051697;28;45369;-61
2021/07/04 10:40:49;;;;;;;;;2.50;2.50;;;;;23.08;52.63;100648.38;5028443;28;66458;-64
2021/07/04 10:43:57;;;;;;;;;1.00;1.00;;;;;23.09;50.60;100650.06;5052139;28;47466;-67
2021/07/04 10:46:41;;;;;;;;;2.00;2.00;;;;;23.02;49.36;100653.19;5046303;28;45622;-69
2021/07/04 10:49:14;;;;;;;;;0.00;0.00;;;;;23.17;50.09;100651.09;5054244;28;45448;-62
2021/07/04 10:52:25;;;;;;;;;1.50;0.75;;;;;23.27;50.04;100638.78;5060219;28;45339;-61
2021/07/04 10:54:52;;;;;;;;;1.25;1.25;;;;;23.30;49.72;100638.53;5048996;28;46480;-61
2021/07/04 10:57:34;;;;;;;;;1.00;1.00;;;;;23.37;49.91;100631.75;5039025;28;45489;-61
2021/07/04 11:00:06;;;;;;;;;3.00;1.00;;;;;23.51;49.58;100637.72;5057293;28;45359;-57
2021/07/04 11:02:48;;;;;;;;;2.00;2.00;;;;;23.63;50.51;100629.63;5047903;28;45475;-52
2021/07/04 11:05:23;;;;;;;;;1.75;1.75;;;;;23.52;48.89;100621.69;5048994;28;47219;-67
2021/07/04 11:07:52;;;;;;;;;2.00;1.00;;;;;23.32;49.44;100614.53;5038221;28;45697;-67
2021/07/04 11:10:18;;;;;;;;;3.25;3.25;;;;;23.11;49.74;100630.41;5038427;28;45281;-71
2021/07/04 11:12:44;;;;;;;;;2.25;1.00;;;;;22.96;50.40;100632.47;5020978;28;46617;-64
2021/07/04 11:15:12;;;;;;;;;1.00;1.00;;;;;22.76;52.93;100635.84;5049672;28;46111;-64
2021/07/04 11:18:00;;;;;;;;;8.25;4.75;;;;;22.80;53.41;100618.75;5059721;28;45379;-71
2021/07/04 11:20:29;;;;;;;;;38.50;30.25;;;;;23.07;52.57;100628.97;5049294;28;45426;-61